createdAt,value
2022-09-26T00:03:44.509Z,70.50
2022-09-26T00:08:49.098Z,70.80
2022-09-26T00:13:55.399Z,70.70
2022-09-26T00:18:59.102Z,70.90
2022-09-26T00:24:02.176Z,70.80
2022-09-26T00:29:08.025Z,70.80
2022-09-26T00:34:12.443Z,71.10
2022-09-26T00:39:16.688Z,71.30
2022-09-26T00:44:43.998Z,71.30
2022-09-26T00:49:48.026Z,72.20
2022-09-26T00:54:52.397Z,71.30
2022-09-26T01:00:00.027Z,71.40
2022-09-26T01:05:05.541Z,71.80
2022-09-26T01:10:08.998Z,71.60
2022-09-26T01:15:13.535Z,71.60
2022-09-26T01:20:28.277Z,71.80
2022-09-26T01:25:51.036Z,72.40
2022-09-26T01:31:01.979Z,72.20
2022-09-26T01:36:31.302Z,72.10
2022-09-26T01:41:44.506Z,72.50
2022-09-26T01:46:52.653Z,72.20
2022-09-26T01:52:01.109Z,72.40
2022-09-26T01:57:06.904Z,72.20
2022-09-26T02:02:15.292Z,72.20
2022-09-26T02:07:21.916Z,72.60
2022-09-26T02:12:29.650Z,72.70
2022-09-26T02:17:37.008Z,73.00
2022-09-26T02:22:39.382Z,73.20
2022-09-26T02:27:41.693Z,73.00
2022-09-26T02:32:45.502Z,72.60
2022-09-26T02:37:47.909Z,73.20
2022-09-26T02:43:00.872Z,73.40
2022-09-26T02:48:38.031Z,74.30
2022-09-26T02:54:05.150Z,74.80
2022-09-26T02:59:09.490Z,74.60
2022-09-26T03:04:21.708Z,74.10
2022-09-26T03:09:27.766Z,74.10
2022-09-26T03:14:33.214Z,74.10
2022-09-26T03:19:42.141Z,74.30
2022-09-26T03:24:45.599Z,74.70
2022-09-26T03:29:48.492Z,74.50
2022-09-26T03:34:52.525Z,74.90
2022-09-26T03:39:55.060Z,75.30
2022-09-26T03:44:57.500Z,75.50
2022-09-26T03:50:01.412Z,75.70
2022-09-26T03:55:04.218Z,76.10
2022-09-26T04:00:07.774Z,76.00
2022-09-26T04:05:11.973Z,76.20
2022-09-26T04:10:14.762Z,76.50
2022-09-26T04:15:17.319Z,78.00
2022-09-26T04:20:21.070Z,77.10
2022-09-26T04:25:23.590Z,77.20
2022-09-26T04:30:26.046Z,77.30
2022-09-26T04:35:30.323Z,78.40
2022-09-26T04:40:32.860Z,78.00
2022-09-26T04:45:35.351Z,78.20
2022-09-26T04:50:39.405Z,78.40
2022-09-26T04:55:44.428Z,78.40
2022-09-26T05:00:47.193Z,78.90
2022-09-26T05:05:51.266Z,79.40
2022-09-26T05:10:55.650Z,79.50
2022-09-26T05:16:00.374Z,79.40
2022-09-26T05:21:05.390Z,79.40
2022-09-26T05:26:15.371Z,79.70
2022-09-26T05:31:18.216Z,80.00
2022-09-26T05:36:22.688Z,80.00
2022-09-26T05:41:28.619Z,80.40
2022-09-26T05:46:31.190Z,80.80
2022-09-26T05:51:34.979Z,80.40
2022-09-26T05:56:37.412Z,80.60
2022-09-26T06:01:39.772Z,80.80
2022-09-26T06:06:43.879Z,80.60
2022-09-26T06:11:46.497Z,80.80
2022-09-26T06:16:48.945Z,80.80
2022-09-26T06:21:53.091Z,81.10
2022-09-26T06:26:55.456Z,81.50
2022-09-26T06:31:58.026Z,81.40
2022-09-26T06:37:02.100Z,81.70
2022-09-26T06:42:04.763Z,82.00
2022-09-26T06:47:07.138Z,81.80
2022-09-26T06:52:11.142Z,81.70
2022-09-26T06:57:15.256Z,81.80
2022-09-26T07:02:17.997Z,81.90
2022-09-26T07:07:22.086Z,81.90
2022-09-26T07:12:24.827Z,82.20
2022-09-26T07:17:27.338Z,81.90
2022-09-26T07:22:31.457Z,81.80
2022-09-26T07:27:33.809Z,81.80
2022-09-26T07:32:36.751Z,81.50
2022-09-26T07:37:40.803Z,81.50
2022-09-26T07:42:47.746Z,82.30
2022-09-26T07:48:01.620Z,81.30
2022-09-26T07:53:05.408Z,82.00
2022-09-26T07:58:08.319Z,81.10
2022-09-26T08:03:10.824Z,81.00
2022-09-26T08:08:15.146Z,81.00
2022-09-26T08:13:17.548Z,80.90
2022-09-26T08:18:20.405Z,81.10
2022-09-26T08:23:24.640Z,81.80
2022-09-26T08:28:26.982Z,81.40
2022-09-26T08:33:29.933Z,81.00
2022-09-26T08:38:34.195Z,81.30
2022-09-26T08:43:47.766Z,81.50
2022-09-26T08:49:02.531Z,81.70
2022-09-26T08:54:14.980Z,81.60
2022-09-26T08:59:25.945Z,81.70
2022-09-26T09:04:40.642Z,81.70
2022-09-26T09:09:44.840Z,81.50
2022-09-26T09:15:26.275Z,81.40
2022-09-26T09:20:42.844Z,81.60
2022-09-26T09:25:56.534Z,82.20
2022-09-26T09:31:02.136Z,82.00
2022-09-26T09:36:09.840Z,81.20
2022-09-26T09:41:16.554Z,80.60
2022-09-26T09:46:23.293Z,80.30
2022-09-26T09:51:41.595Z,80.10
2022-09-26T09:56:54.867Z,79.70
2022-09-26T10:02:12.180Z,79.60
2022-09-26T10:07:14.249Z,79.60
2022-09-26T10:12:21.502Z,79.30
2022-09-26T10:17:24.124Z,79.40
2022-09-26T10:22:31.033Z,79.30
2022-09-26T10:27:37.685Z,79.50
2022-09-26T10:32:47.189Z,79.50
2022-09-26T10:37:59.953Z,79.10
2022-09-26T10:43:20.601Z,78.50
2022-09-26T10:48:35.457Z,78.10
2022-09-26T10:53:41.425Z,78.10
2022-09-26T10:58:47.296Z,78.10
2022-09-26T11:03:50.767Z,78.70
2022-09-26T11:08:57.757Z,78.90
2022-09-26T11:14:04.162Z,79.70
2022-09-26T11:19:14.763Z,80.10
2022-09-26T11:24:25.372Z,81.20
2022-09-26T11:29:42.299Z,81.70
2022-09-26T11:34:46.448Z,82.60
2022-09-26T11:40:00.270Z,82.20
2022-09-26T11:45:16.871Z,83.00
2022-09-26T11:50:38.384Z,83.60
2022-09-26T11:55:53.444Z,83.60
2022-09-26T12:01:06.473Z,83.70
2022-09-26T12:06:22.908Z,84.10
2022-09-26T12:11:36.020Z,84.50
2022-09-26T12:16:48.493Z,84.80
2022-09-26T12:21:58.120Z,85.70
2022-09-26T12:27:08.973Z,85.70
2022-09-26T12:32:41.790Z,85.90
2022-09-26T12:38:09.343Z,86.60
2022-09-26T12:43:34.981Z,86.40
2022-09-26T12:49:11.568Z,86.60
2022-09-26T12:54:27.704Z,87.20
2022-09-26T12:59:50.537Z,86.70
2022-09-26T13:05:22.909Z,86.50
2022-09-26T13:10:38.106Z,87.10
2022-09-26T13:15:50.788Z,86.80
2022-09-26T13:21:00.298Z,86.60
2022-09-26T13:26:09.706Z,87.00
2022-09-26T13:31:18.778Z,87.10
2022-09-26T13:36:24.437Z,87.10
2022-09-26T13:41:38.623Z,87.00
2022-09-26T13:46:55.193Z,87.20
2022-09-26T13:52:12.667Z,87.50
2022-09-26T13:57:37.447Z,87.20
2022-09-26T14:02:39.945Z,88.00
2022-09-26T14:07:53.393Z,86.90
2022-09-26T14:13:04.500Z,87.50
2022-09-26T14:18:33.443Z,87.60
2022-09-26T14:23:44.043Z,87.60
2022-09-26T14:28:54.620Z,87.50
2022-09-26T14:34:15.581Z,87.50
2022-09-26T14:39:34.543Z,87.60
2022-09-26T14:44:37.612Z,87.70
2022-09-26T14:49:41.116Z,87.10
2022-09-26T14:54:46.785Z,87.30
2022-09-26T14:59:49.759Z,87.40
2022-09-26T15:05:01.916Z,87.20
2022-09-26T15:10:17.979Z,87.50
2022-09-26T15:15:36.692Z,87.30
2022-09-26T15:20:43.425Z,87.40
2022-09-26T15:25:48.047Z,87.10
2022-09-26T15:31:34.379Z,87.10
2022-09-26T15:36:38.825Z,87.70
2022-09-26T15:41:46.806Z,86.80
2022-09-26T15:46:50.176Z,87.10
2022-09-26T15:51:55.995Z,86.80
2022-09-26T15:57:03.737Z,86.90
2022-09-26T16:02:25.048Z,87.90
2022-09-26T16:07:32.218Z,87.60
2022-09-26T16:12:39.970Z,86.90
2022-09-26T16:17:49.911Z,87.00
2022-09-26T16:22:53.873Z,86.90
2022-09-26T16:28:17.508Z,87.00
2022-09-26T16:33:31.458Z,87.20
2022-09-26T16:38:35.153Z,87.40
2022-09-26T16:43:39.877Z,86.90
2022-09-26T16:48:52.547Z,87.10
2022-09-26T16:53:59.650Z,87.00
2022-09-26T16:59:05.583Z,87.10
2022-09-26T17:04:12.622Z,87.10
2022-09-26T17:09:17.721Z,87.30
2022-09-26T17:14:25.574Z,87.10
2022-09-26T17:19:30.701Z,87.20
2022-09-26T17:24:33.252Z,87.20
2022-09-26T17:29:43.118Z,87.20
2022-09-26T17:34:45.831Z,87.70
2022-09-26T17:39:48.235Z,87.40
2022-09-26T17:44:52.354Z,87.30
2022-09-26T17:49:55.061Z,87.50
2022-09-26T17:54:59.411Z,87.30
2022-09-26T18:00:06.609Z,87.30
2022-09-26T18:05:19.471Z,87.40
2022-09-26T18:10:24.442Z,87.50
2022-09-26T18:15:29.778Z,87.30
2022-09-26T18:20:37.975Z,87.30
2022-09-26T18:25:40.565Z,87.40
2022-09-26T18:30:47.539Z,87.10
2022-09-26T18:35:50.059Z,87.40
2022-09-26T18:40:53.781Z,87.20
2022-09-26T18:45:58.769Z,87.20
2022-09-26T18:51:03.090Z,87.10
2022-09-26T18:56:05.889Z,86.90
2022-09-26T19:01:15.582Z,86.80
2022-09-26T19:06:20.471Z,87.00
2022-09-26T19:11:26.634Z,86.80
2022-09-26T19:16:31.387Z,87.10
2022-09-26T19:21:37.718Z,87.00
2022-09-26T19:26:43.219Z,87.00
2022-09-26T19:31:47.416Z,87.00
2022-09-26T19:36:51.230Z,87.00
2022-09-26T19:41:53.557Z,87.00
2022-09-26T19:46:58.398Z,87.10
2022-09-26T19:52:01.529Z,87.10
2022-09-26T19:57:06.169Z,87.90
2022-09-26T20:02:16.482Z,87.30
2022-09-26T20:07:20.079Z,87.70
2022-09-26T20:12:22.458Z,87.80
2022-09-26T20:17:28.016Z,88.00
2022-09-26T20:22:31.317Z,88.20
2022-09-26T20:27:34.532Z,87.80
2022-09-26T20:32:39.516Z,87.70
2022-09-26T20:37:42.822Z,87.60
2022-09-26T20:42:49.008Z,87.40
2022-09-26T20:47:52.863Z,87.50
2022-09-26T20:52:55.228Z,87.50
2022-09-26T20:57:58.132Z,87.50
2022-09-26T21:03:02.676Z,87.50
2022-09-26T21:08:10.590Z,87.50
2022-09-26T21:13:13.870Z,87.60
2022-09-26T21:18:24.992Z,87.70
2022-09-26T21:23:27.461Z,88.00
2022-09-26T21:28:30.056Z,87.90
2022-09-26T21:33:33.995Z,88.80
2022-09-26T21:38:36.676Z,88.20
2022-09-26T21:43:42.957Z,88.30
2022-09-26T21:48:48.211Z,88.50
2022-09-26T21:53:55.424Z,88.40
2022-09-26T21:58:58.395Z,88.50
2022-09-26T22:04:02.601Z,88.30
2022-09-26T22:09:05.349Z,88.30
2022-09-26T22:14:07.853Z,88.20
2022-09-26T22:19:11.828Z,88.20
2022-09-26T22:24:14.288Z,88.30
2022-09-26T22:29:16.982Z,88.10
2022-09-26T22:34:21.194Z,88.10
2022-09-26T22:39:23.663Z,88.00
2022-09-26T22:44:26.018Z,88.00
2022-09-26T22:49:30.060Z,87.90
2022-09-26T22:54:32.555Z,88.00
2022-09-26T22:59:34.886Z,87.90
2022-09-26T23:04:38.656Z,87.90
2022-09-26T23:09:41.263Z,87.90
2022-09-26T23:14:43.626Z,87.80
2022-09-26T23:19:47.831Z,87.70
2022-09-26T23:24:50.440Z,87.80
2022-09-26T23:29:53.001Z,87.60
2022-09-26T23:34:57.037Z,87.60
2022-09-26T23:39:59.523Z,87.60
2022-09-26T23:45:02.124Z,87.50
2022-09-26T23:50:07.061Z,87.40
2022-09-26T23:55:10.020Z,87.50
